sensor_id;sensor_type;location;lat;lon;timestamp;pressure;altitude;pressure_sealevel;temperature
37452;BMP280;23314;51.114;6.900;2023-06-24T07:02:33;102213.81;;;23.71
37452;BMP280;23314;51.114;6.900;2023-06-24T07:04:58;102213.41;;;24.02
37452;BMP280;23314;51.114;6.900;2023-06-24T07:07:24;102212.69;;;24.31
37452;BMP280;23314;51.114;6.900;2023-06-24T07:09:49;102209.31;;;24.66
37452;BMP280;23314;51.114;6.900;2023-06-24T07:12:15;102215.47;;;24.97
37452;BMP280;23314;51.114;6.900;2023-06-24T07:14:40;102207.03;;;25.15
37452;BMP280;23314;51.114;6.900;2023-06-24T07:17:07;102211.72;;;25.30
37452;BMP280;23314;51.114;6.900;2023-06-24T07:19:32;102216.75;;;25.37
37452;BMP280;23314;51.114;6.900;2023-06-24T07:21:57;102218.56;;;25.46
37452;BMP280;23314;51.114;6.900;2023-06-24T07:24:23;102220.38;;;25.49
37452;BMP280;23314;51.114;6.900;2023-06-24T07:26:48;102218.47;;;25.55
37452;BMP280;23314;51.114;6.900;2023-06-24T07:29:13;102217.56;;;25.64
37452;BMP280;23314;51.114;6.900;2023-06-24T07:31:39;102217.84;;;25.66
37452;BMP280;23314;51.114;6.900;2023-06-24T07:34:04;102228.91;;;25.77
37452;BMP280;23314;51.114;6.900;2023-06-24T07:36:30;102223.97;;;25.81
37452;BMP280;23314;51.114;6.900;2023-06-24T07:38:55;102223.09;;;25.90
37452;BMP280;23314;51.114;6.900;2023-06-24T07:41:21;102228.00;;;26.12
37452;BMP280;23314;51.114;6.900;2023-06-24T07:43:46;102223.56;;;26.41
37452;BMP280;23314;51.114;6.900;2023-06-24T07:46:11;102230.72;;;26.70
37452;BMP280;23314;51.114;6.900;2023-06-24T07:48:37;102229.34;;;26.92
37452;BMP280;23314;51.114;6.900;2023-06-24T07:51:02;102219.03;;;27.18
37452;BMP280;23314;51.114;6.900;2023-06-24T07:53:27;102225.28;;;27.25
37452;BMP280;23314;51.114;6.900;2023-06-24T07:55:53;102222.84;;;27.38
37452;BMP280;23314;51.114;6.900;2023-06-24T07:58:18;102217.44;;;27.49
37452;BMP280;23314;51.114;6.900;2023-06-24T08:00:46;102217.22;;;27.75
37452;BMP280;23314;51.114;6.900;2023-06-24T08:03:12;102213.25;;;27.93
37452;BMP280;23314;51.114;6.900;2023-06-24T08:05:38;102219.25;;;28.03
37452;BMP280;23314;51.114;6.900;2023-06-24T08:08:05;102219.00;;;28.01
37452;BMP280;23314;51.114;6.900;2023-06-24T08:10:30;102217.75;;;27.96
37452;BMP280;23314;51.114;6.900;2023-06-24T08:12:55;102208.53;;;27.94
37452;BMP280;23314;51.114;6.900;2023-06-24T08:15:21;102215.25;;;27.93
37452;BMP280;23314;51.114;6.900;2023-06-24T08:17:53;102218.50;;;27.86
37452;BMP280;23314;51.114;6.900;2023-06-24T08:20:20;102215.22;;;27.70
37452;BMP280;23314;51.114;6.900;2023-06-24T08:22:46;102210.50;;;27.65
37452;BMP280;23314;51.114;6.900;2023-06-24T08:25:11;102208.44;;;27.49
37452;BMP280;23314;51.114;6.900;2023-06-24T08:27:36;102198.47;;;27.57
37452;BMP280;23314;51.114;6.900;2023-06-24T08:30:06;102197.53;;;27.60
37452;BMP280;23314;51.114;6.900;2023-06-24T08:32:32;102209.94;;;27.44
37452;BMP280;23314;51.114;6.900;2023-06-24T08:34:58;102203.66;;;27.27
37452;BMP280;23314;51.114;6.900;2023-06-24T08:37:23;102199.63;;;27.22
37452;BMP280;23314;51.114;6.900;2023-06-24T08:39:48;102207.84;;;27.22
37452;BMP280;23314;51.114;6.900;2023-06-24T08:42:14;102201.78;;;27.01
37452;BMP280;23314;51.114;6.900;2023-06-24T08:44:39;102195.53;;;26.95
37452;BMP280;23314;51.114;6.900;2023-06-24T08:47:05;102201.00;;;26.95
37452;BMP280;23314;51.114;6.900;2023-06-24T08:49:30;102196.03;;;26.99
37452;BMP280;23314;51.114;6.900;2023-06-24T08:52:11;102190.31;;;27.02
37452;BMP280;23314;51.114;6.900;2023-06-24T08:54:40;102204.53;;;27.01
37452;BMP280;23314;51.114;6.900;2023-06-24T08:57:06;102200.00;;;26.92
37452;BMP280;23314;51.114;6.900;2023-06-24T08:59:36;102198.97;;;26.84
37452;BMP280;23314;51.114;6.900;2023-06-24T09:02:03;102198.97;;;26.90
37452;BMP280;23314;51.114;6.900;2023-06-24T09:04:28;102201.28;;;27.02
37452;BMP280;23314;51.114;6.900;2023-06-24T09:06:54;102194.06;;;27.05
37452;BMP280;23314;51.114;6.900;2023-06-24T09:09:20;102188.63;;;27.11
37452;BMP280;23314;51.114;6.900;2023-06-24T09:14:22;102189.66;;;27.19
37452;BMP280;23314;51.114;6.900;2023-06-24T09:16:55;102184.16;;;27.13
37452;BMP280;23314;51.114;6.900;2023-06-24T09:19:25;102189.09;;;27.03
37452;BMP280;23314;51.114;6.900;2023-06-24T09:22:04;102170.41;;;27.02
37452;BMP280;23314;51.114;6.900;2023-06-24T09:24:33;102166.19;;;27.12
37452;BMP280;23314;51.114;6.900;2023-06-24T09:26:59;102174.47;;;27.18
37452;BMP280;23314;51.114;6.900;2023-06-24T09:29:26;102169.00;;;27.23
37452;BMP280;23314;51.114;6.900;2023-06-24T09:31:52;102175.47;;;27.26
37452;BMP280;23314;51.114;6.900;2023-06-24T09:34:19;102173.22;;;27.25
37452;BMP280;23314;51.114;6.900;2023-06-24T09:36:46;102161.31;;;27.28
37452;BMP280;23314;51.114;6.900;2023-06-24T09:39:16;102162.78;;;27.29
37452;BMP280;23314;51.114;6.900;2023-06-24T09:41:41;102160.53;;;27.27
37452;BMP280;23314;51.114;6.900;2023-06-24T09:44:11;102169.25;;;27.20
37452;BMP280;23314;51.114;6.900;2023-06-24T09:46:37;102157.28;;;27.17
37452;BMP280;23314;51.114;6.900;2023-06-24T09:49:04;102153.81;;;27.28
37452;BMP280;23314;51.114;6.900;2023-06-24T09:51:33;102155.59;;;27.37
37452;BMP280;23314;51.114;6.900;2023-06-24T09:54:05;102151.84;;;27.40
37452;BMP280;23314;51.114;6.900;2023-06-24T09:56:31;102151.63;;;27.44
37452;BMP280;23314;51.114;6.900;2023-06-24T09:58:57;102141.19;;;27.53
37452;BMP280;23314;51.114;6.900;2023-06-24T10:01:23;102143.41;;;27.60
37452;BMP280;23314;51.114;6.900;2023-06-24T10:03:48;102142.41;;;27.64
37452;BMP280;23314;51.114;6.900;2023-06-24T10:06:14;102141.94;;;27.71
37452;BMP280;23314;51.114;6.900;2023-06-24T10:08:40;102148.69;;;27.70
37452;BMP280;23314;51.114;6.900;2023-06-24T10:11:05;102137.47;;;27.56
37452;BMP280;23314;51.114;6.900;2023-06-24T10:13:30;102132.44;;;27.49
37452;BMP280;23314;51.114;6.900;2023-06-24T10:15:56;102123.97;;;27.53
37452;BMP280;23314;51.114;6.900;2023-06-24T10:20:56;102118.50;;;27.75
37452;BMP280;23314;51.114;6.900;2023-06-24T10:23:30;102113.03;;;27.87
37452;BMP280;23314;51.114;6.900;2023-06-24T10:25:55;102119.25;;;27.87
37452;BMP280;23314;51.114;6.900;2023-06-24T10:28:20;102111.28;;;27.84
37452;BMP280;23314;51.114;6.900;2023-06-24T10:30:55;102111.03;;;27.87
37452;BMP280;23314;51.114;6.900;2023-06-24T10:33:23;102108.50;;;27.89
37452;BMP280;23314;51.114;6.900;2023-06-24T10:35:48;102110.03;;;27.85
37452;BMP280;23314;51.114;6.900;2023-06-24T10:38:15;102101.53;;;27.83
37452;BMP280;23314;51.114;6.900;2023-06-24T10:40:44;102103.31;;;27.80
37452;BMP280;23314;51.114;6.900;2023-06-24T10:43:29;102095.09;;;27.86
37452;BMP280;23314;51.114;6.900;2023-06-24T10:45:56;102092.56;;;27.93
37452;BMP280;23314;51.114;6.900;2023-06-24T10:48:22;102094.78;;;28.06
37452;BMP280;23314;51.114;6.900;2023-06-24T10:50:48;102081.31;;;28.20
37452;BMP280;23314;51.114;6.900;2023-06-24T10:53:15;102080.25;;;28.34
37452;BMP280;23314;51.114;6.900;2023-06-24T10:55:41;102076.22;;;28.46
37452;BMP280;23314;51.114;6.900;2023-06-24T10:58:09;102074.47;;;28.55
37452;BMP280;23314;51.114;6.900;2023-06-24T11:00:35;102074.69;;;28.57
37452;BMP280;23314;51.114;6.900;2023-06-24T11:03:11;102071.16;;;28.62
37452;BMP280;23314;51.114;6.900;2023-06-24T11:05:41;102074.63;;;28.74
37452;BMP280;23314;51.114;6.900;2023-06-24T11:08:08;102068.09;;;28.82
37452;BMP280;23314;51.114;6.900;2023-06-24T11:10:41;102069.50;;;28.95
37452;BMP280;23314;51.114;6.900;2023-06-24T11:13:07;102060.97;;;29.04
37452;BMP280;23314;51.114;6.900;2023-06-24T11:15:32;102064.16;;;29.08
37452;BMP280;23314;51.114;6.900;2023-06-24T11:18:02;102064.13;;;29.14
37452;BMP280;23314;51.114;6.900;2023-06-24T11:20:27;102060.13;;;29.15
37452;BMP280;23314;51.114;6.900;2023-06-24T11:22:54;102055.59;;;29.17
37452;BMP280;23314;51.114;6.900;2023-06-24T11:25:22;102060.06;;;29.20
37452;BMP280;23314;51.114;6.900;2023-06-24T11:27:50;102055.47;;;29.04
37452;BMP280;23314;51.114;6.900;2023-06-24T11:30:16;102052.22;;;29.00
37452;BMP280;23314;51.114;6.900;2023-06-24T11:32:43;102055.50;;;28.93
37452;BMP280;23314;51.114;6.900;2023-06-24T11:35:10;102058.06;;;28.91
37452;BMP280;23314;51.114;6.900;2023-06-24T11:37:36;102054.50;;;28.96
37452;BMP280;23314;51.114;6.900;2023-06-24T11:40:06;102061.03;;;28.87
37452;BMP280;23314;51.114;6.900;2023-06-24T11:42:35;102050.16;;;28.76
37452;BMP280;23314;51.114;6.900;2023-06-24T11:45:02;102046.13;;;28.82
37452;BMP280;23314;51.114;6.900;2023-06-24T11:47:31;102046.38;;;28.79
37452;BMP280;23314;51.114;6.900;2023-06-24T11:49:57;102041.81;;;28.87
37452;BMP280;23314;51.114;6.900;2023-06-24T11:55:00;102042.06;;;28.89
37452;BMP280;23314;51.114;6.900;2023-06-24T11:57:51;102041.28;;;28.94
37452;BMP280;23314;51.114;6.900;2023-06-24T12:02:58;102037.69;;;29.11
37452;BMP280;23314;51.114;6.900;2023-06-24T12:05:29;102034.88;;;29.16
37452;BMP280;23314;51.114;6.900;2023-06-24T12:07:56;102038.03;;;29.32
37452;BMP280;23314;51.114;6.900;2023-06-24T12:10:22;102034.66;;;29.44
37452;BMP280;23314;51.114;6.900;2023-06-24T12:12:48;102026.81;;;29.54
37452;BMP280;23314;51.114;6.900;2023-06-24T12:15:13;102033.75;;;29.61
37452;BMP280;23314;51.114;6.900;2023-06-24T12:17:39;102031.56;;;29.54
37452;BMP280;23314;51.114;6.900;2023-06-24T12:20:05;102031.81;;;29.56
37452;BMP280;23314;51.114;6.900;2023-06-24T12:22:30;102026.53;;;29.58
37452;BMP280;23314;51.114;6.900;2023-06-24T12:24:56;102030.25;;;29.60
37452;BMP280;23314;51.114;6.900;2023-06-24T12:27:21;102018.44;;;29.66
37452;BMP280;23314;51.114;6.900;2023-06-24T12:29:46;102018.09;;;29.75
37452;BMP280;23314;51.114;6.900;2023-06-24T12:32:12;102016.03;;;29.81
37452;BMP280;23314;51.114;6.900;2023-06-24T12:34:37;102022.34;;;29.76
37452;BMP280;23314;51.114;6.900;2023-06-24T12:37:03;102020.13;;;29.74
37452;BMP280;23314;51.114;6.900;2023-06-24T12:39:28;102014.91;;;29.71
37452;BMP280;23314;51.114;6.900;2023-06-24T12:41:53;102007.38;;;29.71
37452;BMP280;23314;51.114;6.900;2023-06-24T12:44:19;102007.09;;;29.75
37452;BMP280;23314;51.114;6.900;2023-06-24T12:46:44;102009.84;;;29.75
37452;BMP280;23314;51.114;6.900;2023-06-24T12:49:09;102014.41;;;29.72
37452;BMP280;23314;51.114;6.900;2023-06-24T12:51:34;102011.88;;;29.74
37452;BMP280;23314;51.114;6.900;2023-06-24T12:54:00;102003.50;;;29.86
37452;BMP280;23314;51.114;6.900;2023-06-24T12:56:25;101999.13;;;29.96
37452;BMP280;23314;51.114;6.900;2023-06-24T12:58:50;101998.97;;;30.07
37452;BMP280;23314;51.114;6.900;2023-06-24T13:01:16;101994.59;;;30.17
37452;BMP280;23314;51.114;6.900;2023-06-24T13:03:41;102001.63;;;30.18
37452;BMP280;23314;51.114;6.900;2023-06-24T13:06:07;101996.53;;;30.04
37452;BMP280;23314;51.114;6.900;2023-06-24T13:08:32;101997.41;;;29.93
37452;BMP280;23314;51.114;6.900;2023-06-24T13:10:57;101990.91;;;29.90
37452;BMP280;23314;51.114;6.900;2023-06-24T13:13:23;102001.91;;;29.90
37452;BMP280;23314;51.114;6.900;2023-06-24T13:15:48;101996.41;;;29.90
37452;BMP280;23314;51.114;6.900;2023-06-24T13:18:14;101993.66;;;29.90
37452;BMP280;23314;51.114;6.900;2023-06-24T13:20:39;101996.16;;;29.94
37452;BMP280;23314;51.114;6.900;2023-06-24T13:23:04;101989.88;;;29.93
37452;BMP280;23314;51.114;6.900;2023-06-24T13:25:30;101985.88;;;29.94
37452;BMP280;23314;51.114;6.900;2023-06-24T13:27:55;101986.56;;;30.01
37452;BMP280;23314;51.114;6.900;2023-06-24T13:30:21;101991.31;;;30.00
37452;BMP280;23314;51.114;6.900;2023-06-24T13:32:46;101990.00;;;30.07
37452;BMP280;23314;51.114;6.900;2023-06-24T13:35:13;101993.19;;;30.11
37452;BMP280;23314;51.114;6.900;2023-06-24T13:37:38;101991.75;;;30.04
37452;BMP280;23314;51.114;6.900;2023-06-24T13:40:05;101988.13;;;29.96
37452;BMP280;23314;51.114;6.900;2023-06-24T13:42:30;101981.78;;;29.82
37452;BMP280;23314;51.114;6.900;2023-06-24T13:44:56;101979.03;;;29.82
37452;BMP280;23314;51.114;6.900;2023-06-24T13:47:21;101976.41;;;29.90
37452;BMP280;23314;51.114;6.900;2023-06-24T13:49:48;101978.38;;;29.95
37452;BMP280;23314;51.114;6.900;2023-06-24T13:52:13;101974.28;;;30.02
37452;BMP280;23314;51.114;6.900;2023-06-24T13:54:38;101977.50;;;30.06
37452;BMP280;23314;51.114;6.900;2023-06-24T13:57:04;101964.56;;;30.01
37452;BMP280;23314;51.114;6.900;2023-06-24T13:59:29;101970.19;;;30.08
37452;BMP280;23314;51.114;6.900;2023-06-24T14:01:54;101974.56;;;30.17
37452;BMP280;23314;51.114;6.900;2023-06-24T14:04:20;101961.78;;;30.20
37452;BMP280;23314;51.114;6.900;2023-06-24T14:06:45;101952.28;;;30.21
37452;BMP280;23314;51.114;6.900;2023-06-24T14:09:12;101948.63;;;30.12
37452;BMP280;23314;51.114;6.900;2023-06-24T14:11:37;101954.13;;;30.12
37452;BMP280;23314;51.114;6.900;2023-06-24T14:14:02;101949.34;;;30.13
37452;BMP280;23314;51.114;6.900;2023-06-24T14:16:27;101947.59;;;30.15
37452;BMP280;23314;51.114;6.900;2023-06-24T14:18:53;101948.47;;;30.24
37452;BMP280;23314;51.114;6.900;2023-06-24T14:21:18;101949.13;;;30.30
37452;BMP280;23314;51.114;6.900;2023-06-24T14:23:43;101941.50;;;30.23
37452;BMP280;23314;51.114;6.900;2023-06-24T14:26:09;101943.56;;;30.16
37452;BMP280;23314;51.114;6.900;2023-06-24T14:28:34;101940.13;;;30.10
37452;BMP280;23314;51.114;6.900;2023-06-24T14:31:00;101941.53;;;30.17
37452;BMP280;23314;51.114;6.900;2023-06-24T14:33:25;101932.78;;;30.18
37452;BMP280;23314;51.114;6.900;2023-06-24T14:35:51;101937.22;;;30.22
37452;BMP280;23314;51.114;6.900;2023-06-24T14:38:16;101936.94;;;30.25
37452;BMP280;23314;51.114;6.900;2023-06-24T14:40:41;101943.16;;;30.26
37452;BMP280;23314;51.114;6.900;2023-06-24T14:43:07;101931.50;;;30.20
37452;BMP280;23314;51.114;6.900;2023-06-24T14:45:32;101940.03;;;30.16
37452;BMP280;23314;51.114;6.900;2023-06-24T14:47:57;101932.63;;;30.11
37452;BMP280;23314;51.114;6.900;2023-06-24T14:50:23;101935.44;;;30.05
37452;BMP280;23314;51.114;6.900;2023-06-24T14:52:48;101923.78;;;29.99
37452;BMP280;23314;51.114;6.900;2023-06-24T14:55:14;101926.31;;;29.97
37452;BMP280;23314;51.114;6.900;2023-06-24T14:57:39;101923.84;;;29.93
37452;BMP280;23314;51.114;6.900;2023-06-24T15:00:08;101921.41;;;29.90
37452;BMP280;23314;51.114;6.900;2023-06-24T15:02:34;101922.69;;;29.89
37452;BMP280;23314;51.114;6.900;2023-06-24T15:05:01;101918.44;;;29.88
37452;BMP280;23314;51.114;6.900;2023-06-24T15:07:26;101918.34;;;29.93
37452;BMP280;23314;51.114;6.900;2023-06-24T15:09:52;101913.81;;;29.96
37452;BMP280;23314;51.114;6.900;2023-06-24T15:12:17;101913.53;;;29.99
37452;BMP280;23314;51.114;6.900;2023-06-24T15:14:43;101919.25;;;30.02
37452;BMP280;23314;51.114;6.900;2023-06-24T15:17:10;101913.59;;;29.94
37452;BMP280;23314;51.114;6.900;2023-06-24T15:19:36;101907.88;;;29.92
37452;BMP280;23314;51.114;6.900;2023-06-24T15:22:01;101907.94;;;29.86
37452;BMP280;23314;51.114;6.900;2023-06-24T15:24:26;101904.44;;;29.86
37452;BMP280;23314;51.114;6.900;2023-06-24T15:26:52;101901.53;;;29.78
37452;BMP280;23314;51.114;6.900;2023-06-24T15:29:17;101892.31;;;29.75
37452;BMP280;23314;51.114;6.900;2023-06-24T15:31:42;101900.28;;;29.79
37452;BMP280;23314;51.114;6.900;2023-06-24T15:34:10;101894.69;;;29.85
37452;BMP280;23314;51.114;6.900;2023-06-24T15:36:35;101894.91;;;29.87
37452;BMP280;23314;51.114;6.900;2023-06-24T15:39:00;101893.59;;;29.93
37452;BMP280;23314;51.114;6.900;2023-06-24T15:41:26;101890.97;;;30.01
37452;BMP280;23314;51.114;6.900;2023-06-24T15:43:51;101887.72;;;30.03
37452;BMP280;23314;51.114;6.900;2023-06-24T15:46:16;101883.25;;;29.99
37452;BMP280;23314;51.114;6.900;2023-06-24T15:48:42;101882.50;;;29.99
37452;BMP280;23314;51.114;6.900;2023-06-24T15:51:07;101879.00;;;29.98
37452;BMP280;23314;51.114;6.900;2023-06-24T15:53:32;101883.03;;;29.97
37452;BMP280;23314;51.114;6.900;2023-06-24T15:55:59;101876.13;;;29.91
37452;BMP280;23314;51.114;6.900;2023-06-24T15:58:24;101882.13;;;29.89
37452;BMP280;23314;51.114;6.900;2023-06-24T16:00:49;101882.56;;;29.93
37452;BMP280;23314;51.114;6.900;2023-06-24T16:03:15;101871.34;;;29.91
37452;BMP280;23314;51.114;6.900;2023-06-24T16:05:40;101878.31;;;29.92
37452;BMP280;23314;51.114;6.900;2023-06-24T16:08:06;101872.19;;;29.86
37452;BMP280;23314;51.114;6.900;2023-06-24T16:10:31;101869.72;;;29.83
37452;BMP280;23314;51.114;6.900;2023-06-24T16:12:57;101860.19;;;29.84
37452;BMP280;23314;51.114;6.900;2023-06-24T16:15:22;101864.06;;;29.94
37452;BMP280;23314;51.114;6.900;2023-06-24T16:17:48;101863.41;;;30.07
37452;BMP280;23314;51.114;6.900;2023-06-24T16:20:13;101857.94;;;30.20
37452;BMP280;23314;51.114;6.900;2023-06-24T16:22:44;101850.69;;;30.36
37452;BMP280;23314;51.114;6.900;2023-06-24T16:25:10;101854.13;;;30.55
37452;BMP280;23314;51.114;6.900;2023-06-24T16:27:35;101858.72;;;30.80
37452;BMP280;23314;51.114;6.900;2023-06-24T16:30:01;101852.78;;;31.02
37452;BMP280;23314;51.114;6.900;2023-06-24T16:32:26;101848.53;;;31.28
37452;BMP280;23314;51.114;6.900;2023-06-24T16:34:52;101846.31;;;31.61
37452;BMP280;23314;51.114;6.900;2023-06-24T16:37:17;101848.66;;;32.12
37452;BMP280;23314;51.114;6.900;2023-06-24T16:39:42;101848.44;;;32.60
37452;BMP280;23314;51.114;6.900;2023-06-24T16:42:08;101843.63;;;33.33
37452;BMP280;23314;51.114;6.900;2023-06-24T16:44:33;101848.84;;;34.14
37452;BMP280;23314;51.114;6.900;2023-06-24T16:47:02;101843.13;;;34.91
37452;BMP280;23314;51.114;6.900;2023-06-24T16:49:27;101854.44;;;35.51
37452;BMP280;23314;51.114;6.900;2023-06-24T16:51:53;101843.72;;;36.15
37452;BMP280;23314;51.114;6.900;2023-06-24T16:54:18;101846.72;;;36.71
37452;BMP280;23314;51.114;6.900;2023-06-24T16:56:46;101845.38;;;37.17
37452;BMP280;23314;51.114;6.900;2023-06-24T16:59:11;101842.91;;;37.78
37452;BMP280;23314;51.114;6.900;2023-06-24T17:01:37;101841.16;;;38.12
37452;BMP280;23314;51.114;6.900;2023-06-24T17:04:02;101838.81;;;38.27
37452;BMP280;23314;51.114;6.900;2023-06-24T17:06:28;101840.34;;;38.60
37452;BMP280;23314;51.114;6.900;2023-06-24T17:08:53;101833.78;;;38.96
37452;BMP280;23314;51.114;6.900;2023-06-24T17:11:18;101827.38;;;39.15
37452;BMP280;23314;51.114;6.900;2023-06-24T17:13:44;101824.66;;;39.48
37452;BMP280;23314;51.114;6.900;2023-06-24T17:16:09;101825.00;;;39.98
37452;BMP280;23314;51.114;6.900;2023-06-24T17:18:34;101819.63;;;40.23
37452;BMP280;23314;51.114;6.900;2023-06-24T17:21:00;101823.66;;;40.32
37452;BMP280;23314;51.114;6.900;2023-06-24T17:23:25;101820.97;;;40.34
37452;BMP280;23314;51.114;6.900;2023-06-24T17:25:51;101821.34;;;40.64
37452;BMP280;23314;51.114;6.900;2023-06-24T17:28:16;101826.06;;;40.38
37452;BMP280;23314;51.114;6.900;2023-06-24T17:30:41;101821.41;;;40.19
37452;BMP280;23314;51.114;6.900;2023-06-24T17:33:07;101827.16;;;40.44
37452;BMP280;23314;51.114;6.900;2023-06-24T17:35:32;101816.72;;;40.45
37452;BMP280;23314;51.114;6.900;2023-06-24T17:37:57;101818.78;;;40.68
37452;BMP280;23314;51.114;6.900;2023-06-24T17:40:23;101816.47;;;40.29
37452;BMP280;23314;51.114;6.900;2023-06-24T17:42:48;101812.81;;;39.93
37452;BMP280;23314;51.114;6.900;2023-06-24T17:45:13;101813.41;;;39.80
37452;BMP280;23314;51.114;6.900;2023-06-24T17:47:38;101814.16;;;39.92
37452;BMP280;23314;51.114;6.900;2023-06-24T17:50:04;101807.78;;;40.01
37452;BMP280;23314;51.114;6.900;2023-06-24T17:52:30;101811.31;;;39.80
37452;BMP280;23314;51.114;6.900;2023-06-24T17:54:55;101812.16;;;39.71
37452;BMP280;23314;51.114;6.900;2023-06-24T17:57:20;101811.81;;;39.55
37452;BMP280;23314;51.114;6.900;2023-06-24T17:59:46;101807.34;;;39.62
37452;BMP280;23314;51.114;6.900;2023-06-24T18:02:11;101804.97;;;39.68
37452;BMP280;23314;51.114;6.900;2023-06-24T18:04:36;101803.38;;;39.98
37452;BMP280;23314;51.114;6.900;2023-06-24T18:07:02;101808.91;;;40.31
37452;BMP280;23314;51.114;6.900;2023-06-24T18:09:27;101805.19;;;40.39
37452;BMP280;23314;51.114;6.900;2023-06-24T18:11:53;101808.56;;;40.37
37452;BMP280;23314;51.114;6.900;2023-06-24T18:14:20;101800.44;;;40.41
37452;BMP280;23314;51.114;6.900;2023-06-24T18:16:49;101809.88;;;40.24
37452;BMP280;23314;51.114;6.900;2023-06-24T18:19:15;101805.50;;;39.76
37452;BMP280;23314;51.114;6.900;2023-06-24T18:21:41;101792.94;;;39.44
37452;BMP280;23314;51.114;6.900;2023-06-24T18:24:06;101804.50;;;39.07
37452;BMP280;23314;51.114;6.900;2023-06-24T18:26:32;101811.16;;;38.61
37452;BMP280;23314;51.114;6.900;2023-06-24T18:28:57;101799.78;;;38.27
37452;BMP280;23314;51.114;6.900;2023-06-24T18:31:24;101796.28;;;38.07
37452;BMP280;23314;51.114;6.900;2023-06-24T18:33:51;101805.22;;;37.77
37452;BMP280;23314;51.114;6.900;2023-06-24T18:36:16;101802.72;;;37.61
37452;BMP280;23314;51.114;6.900;2023-06-24T18:38:41;101797.28;;;37.44
37452;BMP280;23314;51.114;6.900;2023-06-24T18:41:06;101796.06;;;37.27
37452;BMP280;23314;51.114;6.900;2023-06-24T18:43:32;101797.28;;;36.97
37452;BMP280;23314;51.114;6.900;2023-06-24T18:45:57;101792.81;;;36.84
37452;BMP280;23314;51.114;6.900;2023-06-24T18:48:22;101790.09;;;36.67
37452;BMP280;23314;51.114;6.900;2023-06-24T18:50:48;101796.31;;;36.58
37452;BMP280;23314;51.114;6.900;2023-06-24T18:53:13;101787.69;;;36.36
37452;BMP280;23314;51.114;6.900;2023-06-24T18:55:38;101790.09;;;36.22
37452;BMP280;23314;51.114;6.900;2023-06-24T18:58:05;101789.03;;;36.18
37452;BMP280;23314;51.114;6.900;2023-06-24T19:00:33;101779.16;;;36.07
37452;BMP280;23314;51.114;6.900;2023-06-24T19:02:59;101783.06;;;35.86
37452;BMP280;23314;51.114;6.900;2023-06-24T19:05:25;101784.81;;;35.74
37452;BMP280;23314;51.114;6.900;2023-06-24T19:07:51;101781.31;;;35.56
37452;BMP280;23314;51.114;6.900;2023-06-24T19:10:17;101791.22;;;35.17
37452;BMP280;23314;51.114;6.900;2023-06-24T19:12:43;101779.75;;;34.47
37452;BMP280;23314;51.114;6.900;2023-06-24T19:15:08;101775.59;;;33.84
37452;BMP280;23314;51.114;6.900;2023-06-24T19:17:34;101783.84;;;33.23
